Brookhaven Weather

Current Time: 16:08 Zulu

HWV METARs

Local Time Temperature Dew Point Wind Direction Wind Speed Wind Gust Sky Vis.
8/22/2017 4:17:00 PM 27.8° c 24.4° c 220° 9 kt - SCT 1300 ft AGL 8.0 sm
8/22/2017 3:56:00 PM 27.8° c 24.4° c 230° 6 kt - BKN 1200 ft AGL 8.0 sm
8/22/2017 2:56:00 PM 26.7° c 23.9° c 220° 9 kt - OVC 1000 ft AGL 8.0 sm
8/22/2017 1:56:00 PM 25.6° c 23.9° c 220° 8 kt - OVC 800 ft AGL 7.0 sm
8/22/2017 12:56:00 PM 25.6° c 23.9° c 200° 8 kt - OVC 800 ft AGL 9.0 sm
8/22/2017 12:36:00 PM 25.6° c 23.9° c 230° 8 kt - OVC 900 ft AGL 8.0 sm

ISP TAF:

KISP 221531Z 2216/2312 22010KT P6SM SCT010 BKN250 
FM221800 21012G18KT P6SM SCT025 BKN250 
FM222000 20016G24KT P6SM SCT040 BKN250 
FM230000 21017G25KT P6SM SCT007 BKN015 BKN250 PROB30 2304/2308 5SM TSRA BKN025 BKN050CB 
FM230800 23010KT P6SM VCSH SCT015 BKN025
Weather data provided by aviationweather.gov. Pilots must verify weather before flying.